createdAt,value
2018-12-16T00:00:26.390Z,23.00
2018-12-16T00:02:53.979Z,22.27
2018-12-16T00:05:21.562Z,20.45
2018-12-16T00:07:49.164Z,21.97
2018-12-16T00:10:16.741Z,24.70
2018-12-16T00:12:44.694Z,22.50
2018-12-16T00:15:12.266Z,21.60
2018-12-16T00:17:39.859Z,22.48
2018-12-16T00:20:07.442Z,22.10
2018-12-16T00:22:36.263Z,24.23
2018-12-16T00:25:05.278Z,20.10
2018-12-16T00:27:32.878Z,22.80
2018-12-16T00:30:00.470Z,24.30
2018-12-16T00:32:28.035Z,22.82
2018-12-16T00:34:55.633Z,22.93
2018-12-16T00:37:23.203Z,23.90
2018-12-16T00:39:50.806Z,21.40
2018-12-16T00:42:18.371Z,23.50
2018-12-16T00:44:45.963Z,22.00
2018-12-16T00:47:13.538Z,24.30
2018-12-16T00:49:41.137Z,25.05
2018-12-16T00:52:08.701Z,23.80
2018-12-16T00:54:36.306Z,24.37
2018-12-16T00:57:03.883Z,25.05
2018-12-16T00:59:31.475Z,27.42
2018-12-16T01:01:59.051Z,25.90
2018-12-16T01:04:26.722Z,24.98
2018-12-16T01:06:54.290Z,24.60
2018-12-16T01:09:21.968Z,24.35
2018-12-16T01:11:49.563Z,22.55
2018-12-16T01:14:17.131Z,23.12
2018-12-16T01:16:44.722Z,23.15
2018-12-16T01:19:12.290Z,22.35
2018-12-16T01:21:39.899Z,23.45
2018-12-16T01:24:07.467Z,25.37
2018-12-16T01:26:35.178Z,22.93
2018-12-16T01:29:02.803Z,23.45
2018-12-16T01:31:30.595Z,22.60
2018-12-16T01:33:58.161Z,25.10
2018-12-16T01:36:25.752Z,21.48
2018-12-16T01:38:53.327Z,21.23
2018-12-16T01:41:20.918Z,21.82
2018-12-16T01:43:48.491Z,22.32
2018-12-16T01:46:16.095Z,22.40
2018-12-16T01:48:43.662Z,21.05
2018-12-16T01:51:11.254Z,21.60
2018-12-16T01:53:38.830Z,20.57
2018-12-16T01:56:06.422Z,21.00
2018-12-16T01:58:34.010Z,19.27
2018-12-16T02:01:01.587Z,18.98
2018-12-16T02:03:29.182Z,18.32
2018-12-16T02:05:56.759Z,19.57
2018-12-16T02:08:24.355Z,20.57
2018-12-16T02:10:51.923Z,18.98
2018-12-16T02:13:19.515Z,20.32
2018-12-16T02:15:47.086Z,19.73
2018-12-16T02:18:14.687Z,18.87
2018-12-16T02:20:42.263Z,18.32
2018-12-16T02:23:09.853Z,20.00
2018-12-16T02:25:37.421Z,19.97
2018-12-16T02:28:05.043Z,19.25
2018-12-16T02:30:32.606Z,18.92
2018-12-16T02:33:00.212Z,19.92
2018-12-16T02:35:27.807Z,19.10
2018-12-16T02:37:55.380Z,17.37
2018-12-16T02:40:23.002Z,18.00
2018-12-16T02:42:50.576Z,18.20
2018-12-16T02:45:19.385Z,18.67
2018-12-16T02:47:48.100Z,17.07
2018-12-16T02:50:15.694Z,18.62
2018-12-16T02:52:43.267Z,17.27
2018-12-16T02:55:10.866Z,17.12
2018-12-16T02:57:38.450Z,16.15
2018-12-16T03:00:07.790Z,16.27
2018-12-16T03:02:35.359Z,16.50
2018-12-16T03:05:03.069Z,18.53
2018-12-16T03:07:30.647Z,14.85
2018-12-16T03:09:58.248Z,17.05
2018-12-16T03:12:25.819Z,15.83
2018-12-16T03:14:53.431Z,16.37
2018-12-16T03:17:21.724Z,16.02
2018-12-16T03:19:49.294Z,14.65
2018-12-16T03:22:16.904Z,15.28
2018-12-16T03:24:44.466Z,14.07
2018-12-16T03:27:12.079Z,14.53
2018-12-16T03:29:39.660Z,14.13
2018-12-16T03:32:07.255Z,13.55
2018-12-16T03:34:34.834Z,15.03
2018-12-16T03:37:02.443Z,14.85
2018-12-16T03:39:30.010Z,13.95
2018-12-16T03:41:57.611Z,13.77
2018-12-16T03:44:25.182Z,13.32
2018-12-16T03:46:52.798Z,14.13
2018-12-16T03:49:20.363Z,13.05
2018-12-16T03:51:47.965Z,14.65
2018-12-16T03:54:15.532Z,12.63
2018-12-16T03:56:43.136Z,13.38
2018-12-16T03:59:18.071Z,15.40
2018-12-16T04:01:47.815Z,15.28
2018-12-16T04:04:15.415Z,13.80
2018-12-16T04:06:43.373Z,14.35
2018-12-16T04:09:11.331Z,15.30
2018-12-16T04:11:38.912Z,14.10
2018-12-16T04:14:06.509Z,13.75
2018-12-16T04:16:34.091Z,15.20
2018-12-16T04:19:01.689Z,15.78
2018-12-16T04:21:29.258Z,15.15
2018-12-16T04:23:56.990Z,14.55
2018-12-16T04:26:24.555Z,15.38
2018-12-16T04:28:52.158Z,15.78
2018-12-16T04:31:19.725Z,15.78
2018-12-16T04:33:47.319Z,16.32
2018-12-16T04:36:15.599Z,14.95
2018-12-16T04:38:43.204Z,15.88
2018-12-16T04:41:10.843Z,15.72
2018-12-16T04:43:38.435Z,14.63
2018-12-16T04:46:06.012Z,14.40
2018-12-16T04:48:33.588Z,14.33
2018-12-16T04:51:01.207Z,14.63
2018-12-16T04:53:35.095Z,14.05
2018-12-16T04:55:58.418Z,15.48
2018-12-16T04:58:26.075Z,14.85
2018-12-16T05:00:53.786Z,15.23
2018-12-16T05:03:21.355Z,15.68
2018-12-16T05:05:48.942Z,14.87
2018-12-16T05:08:16.522Z,13.75
2018-12-16T05:10:44.890Z,14.43
2018-12-16T05:13:12.474Z,15.05
2018-12-16T05:15:40.286Z,13.60
2018-12-16T05:18:07.863Z,15.48
2018-12-16T05:20:35.463Z,14.07
2018-12-16T05:23:03.031Z,12.70
2018-12-16T05:25:30.623Z,13.22
2018-12-16T05:27:58.193Z,13.48
2018-12-16T05:30:25.790Z,13.00
2018-12-16T05:32:53.383Z,13.13
2018-12-16T05:35:20.952Z,13.22
2018-12-16T05:37:48.586Z,12.68
2018-12-16T05:40:16.150Z,12.85
2018-12-16T05:42:43.739Z,13.60
2018-12-16T05:45:11.318Z,12.65
2018-12-16T05:47:38.918Z,13.68
2018-12-16T05:50:06.823Z,13.07
2018-12-16T05:52:34.522Z,12.25
2018-12-16T05:55:02.112Z,13.45
2018-12-16T05:57:30.358Z,11.93
2018-12-16T05:59:57.945Z,13.58
2018-12-16T06:02:25.543Z,13.08
2018-12-16T06:04:53.128Z,13.13
2018-12-16T06:07:20.734Z,12.53
2018-12-16T06:09:48.303Z,14.33
2018-12-16T06:12:15.898Z,12.98
2018-12-16T06:14:43.467Z,14.00
2018-12-16T06:17:11.039Z,13.90
2018-12-16T06:19:38.812Z,15.80
2018-12-16T06:22:06.381Z,13.70
2018-12-16T06:24:33.991Z,13.93
2018-12-16T06:27:01.560Z,13.72
2018-12-16T06:29:29.155Z,13.37
2018-12-16T06:31:56.730Z,13.50
2018-12-16T06:34:24.317Z,13.13
2018-12-16T06:36:51.892Z,12.85
2018-12-16T06:39:19.753Z,12.63
2018-12-16T06:41:47.334Z,14.50
2018-12-16T06:44:14.927Z,12.13
2018-12-16T06:46:42.499Z,13.20
2018-12-16T06:49:10.110Z,14.30
2018-12-16T06:52:38.335Z,13.35
2018-12-16T06:55:05.951Z,12.87
2018-12-16T06:57:33.518Z,14.05
2018-12-16T07:00:01.131Z,12.45
2018-12-16T07:02:28.699Z,13.32
2018-12-16T07:04:56.289Z,12.80
2018-12-16T07:07:23.859Z,12.15
2018-12-16T07:09:51.462Z,11.40
2018-12-16T07:12:19.037Z,11.90
2018-12-16T07:14:46.656Z,12.65
2018-12-16T07:17:14.259Z,11.53
2018-12-16T07:19:41.945Z,11.83
2018-12-16T07:22:09.535Z,13.15
2018-12-16T07:24:37.166Z,12.88
2018-12-16T07:27:04.938Z,10.68
2018-12-16T07:29:32.638Z,12.53
2018-12-16T07:32:00.287Z,11.55
2018-12-16T07:34:28.527Z,10.95
2018-12-16T07:36:56.271Z,12.70
2018-12-16T07:39:23.940Z,12.23
2018-12-16T07:41:51.774Z,12.40
2018-12-16T07:44:19.339Z,11.90
2018-12-16T07:46:47.177Z,12.03
2018-12-16T07:49:15.383Z,11.80
2018-12-16T07:51:42.978Z,12.70
2018-12-16T07:54:16.067Z,11.45
2018-12-16T07:56:40.203Z,11.88
2018-12-16T07:59:07.803Z,11.43
2018-12-16T08:01:36.026Z,12.00
2018-12-16T08:04:03.803Z,12.05
2018-12-16T08:06:31.413Z,13.18
2018-12-16T08:08:59.055Z,11.03
2018-12-16T08:11:26.703Z,11.35
2018-12-16T08:13:54.298Z,11.65
2018-12-16T08:16:21.866Z,14.15
2018-12-16T08:18:49.466Z,13.10
2018-12-16T08:21:17.043Z,12.85
2018-12-16T08:23:44.644Z,12.95
2018-12-16T08:26:12.225Z,13.75
2018-12-16T08:28:39.815Z,13.05
2018-12-16T08:31:07.757Z,11.33
2018-12-16T08:33:36.579Z,11.30
2018-12-16T08:36:04.343Z,12.05
2018-12-16T08:38:31.942Z,13.05
2018-12-16T08:41:00.351Z,11.78
2018-12-16T08:43:27.943Z,12.23
2018-12-16T08:45:56.465Z,11.28
2018-12-16T08:48:24.035Z,12.13
2018-12-16T08:50:51.635Z,12.43
2018-12-16T08:53:19.221Z,11.68
2018-12-16T08:55:46.827Z,11.57
2018-12-16T08:58:14.411Z,11.57
2018-12-16T09:00:42.010Z,12.30
2018-12-16T09:03:10.322Z,11.33
2018-12-16T09:05:38.065Z,11.93
2018-12-16T09:08:06.659Z,11.45
2018-12-16T09:10:34.527Z,10.85
2018-12-16T09:13:02.271Z,11.43
2018-12-16T09:15:29.986Z,11.25
2018-12-16T09:17:57.551Z,11.13
2018-12-16T09:20:25.743Z,11.30
2018-12-16T09:22:53.548Z,12.90
2018-12-16T09:25:21.148Z,11.65
2018-12-16T09:27:49.439Z,10.00
2018-12-16T09:30:17.027Z,11.60
2018-12-16T09:32:44.623Z,11.40
2018-12-16T09:35:13.412Z,12.07
2018-12-16T09:37:42.420Z,12.68
2018-12-16T09:40:13.373Z,11.48
2018-12-16T09:42:42.366Z,10.93
2018-12-16T09:45:17.262Z,12.18
2018-12-16T09:47:45.287Z,12.47
2018-12-16T09:50:12.926Z,11.10
2018-12-16T09:52:41.909Z,12.53
2018-12-16T09:55:09.491Z,11.67
2018-12-16T09:57:37.088Z,12.03
2018-12-16T10:00:06.467Z,11.88
2018-12-16T10:02:34.062Z,13.32
2018-12-16T10:05:01.724Z,11.90
2018-12-16T10:07:29.319Z,11.60
2018-12-16T10:09:56.887Z,11.80
2018-12-16T10:12:24.491Z,11.70
2018-12-16T10:14:52.651Z,16.30
2018-12-16T10:17:20.247Z,12.05
2018-12-16T10:19:47.842Z,11.93
2018-12-16T10:22:15.427Z,11.77
2018-12-16T10:24:43.021Z,14.50
2018-12-16T10:27:10.711Z,11.88
2018-12-16T10:29:38.735Z,14.40
2018-12-16T10:32:06.414Z,12.37
2018-12-16T10:34:34.087Z,12.28
2018-12-16T10:37:01.647Z,11.75
2018-12-16T10:39:29.322Z,11.97
2018-12-16T10:41:56.895Z,11.78
2018-12-16T10:44:24.518Z,12.28
2018-12-16T10:46:52.099Z,15.07
2018-12-16T10:49:19.783Z,13.85
2018-12-16T10:51:47.355Z,12.55
2018-12-16T10:54:15.092Z,13.03
2018-12-16T10:56:42.675Z,12.80
2018-12-16T10:59:10.273Z,13.10
2018-12-16T11:01:37.855Z,12.93
2018-12-16T11:04:05.506Z,13.28
2018-12-16T11:06:33.311Z,13.43
2018-12-16T11:09:01.034Z,14.58
2018-12-16T11:11:28.628Z,14.93
2018-12-16T11:13:56.194Z,14.27
2018-12-16T11:16:23.952Z,13.43
2018-12-16T11:18:51.523Z,13.53
2018-12-16T11:21:19.109Z,12.73
2018-12-16T11:23:53.523Z,13.38
2018-12-16T11:26:16.303Z,13.98
2018-12-16T11:28:43.862Z,13.70
2018-12-16T11:31:11.463Z,14.38
2018-12-16T11:33:39.026Z,14.05
2018-12-16T11:36:06.619Z,13.13
2018-12-16T11:38:34.216Z,13.67
2018-12-16T11:41:01.790Z,12.47
2018-12-16T11:43:29.409Z,12.30
2018-12-16T11:45:56.975Z,12.53
2018-12-16T11:48:24.630Z,13.30
2018-12-16T11:50:52.447Z,14.07
2018-12-16T11:53:20.038Z,13.90
2018-12-16T11:55:47.595Z,14.28
2018-12-16T11:58:15.186Z,15.28
2018-12-16T12:00:43.032Z,15.18
2018-12-16T12:03:10.666Z,14.93
2018-12-16T12:05:38.231Z,14.60
2018-12-16T12:08:05.827Z,16.12
2018-12-16T12:10:33.480Z,15.37
2018-12-16T12:13:01.075Z,15.30
2018-12-16T12:15:29.260Z,14.87
2018-12-16T12:17:56.863Z,15.60
2018-12-16T12:20:24.544Z,15.23
2018-12-16T12:22:52.830Z,14.83
2018-12-16T12:25:20.420Z,14.75
2018-12-16T12:27:48.056Z,15.72
2018-12-16T12:30:15.718Z,14.40
2018-12-16T12:32:43.282Z,15.20
2018-12-16T12:35:10.883Z,14.05
2018-12-16T12:37:38.438Z,15.38
2018-12-16T12:40:06.875Z,15.58
2018-12-16T12:42:34.445Z,14.87
2018-12-16T12:45:02.036Z,14.50
2018-12-16T12:47:29.732Z,14.55
2018-12-16T12:49:57.329Z,14.60
2018-12-16T12:52:24.891Z,15.57
2018-12-16T12:54:52.486Z,16.15
2018-12-16T12:57:20.046Z,15.40
2018-12-16T12:59:47.635Z,15.98
2018-12-16T13:02:15.195Z,15.80
2018-12-16T13:04:42.799Z,16.42
2018-12-16T13:07:10.367Z,17.15
2018-12-16T13:09:37.958Z,17.00
2018-12-16T13:12:05.535Z,16.90
2018-12-16T13:14:33.207Z,16.80
2018-12-16T13:17:00.770Z,16.62
2018-12-16T13:19:29.701Z,18.35
2018-12-16T13:21:57.554Z,17.40
2018-12-16T13:24:25.151Z,17.98
2018-12-16T13:26:53.063Z,16.82
2018-12-16T13:29:20.627Z,16.32
2018-12-16T13:31:48.214Z,16.25
2018-12-16T13:34:15.799Z,17.90
2018-12-16T13:36:43.400Z,18.07
2018-12-16T13:39:10.970Z,18.62
2018-12-16T13:41:38.559Z,18.33
2018-12-16T13:44:06.149Z,16.25
2018-12-16T13:46:33.746Z,18.02
2018-12-16T13:49:01.315Z,16.85
2018-12-16T13:51:29.236Z,15.98
2018-12-16T13:53:56.794Z,15.65
2018-12-16T13:56:24.392Z,16.15
2018-12-16T13:58:51.958Z,15.43
2018-12-16T14:01:19.558Z,15.83
2018-12-16T14:03:47.122Z,15.58
2018-12-16T14:06:14.715Z,15.80
2018-12-16T14:08:42.278Z,15.03
2018-12-16T14:11:09.874Z,16.75
2018-12-16T14:13:37.450Z,16.75
2018-12-16T14:16:05.603Z,15.80
2018-12-16T14:18:33.167Z,18.05
2018-12-16T14:21:00.763Z,14.65
2018-12-16T14:23:28.430Z,15.38
2018-12-16T14:25:56.004Z,15.32
2018-12-16T14:28:23.653Z,15.03
2018-12-16T14:30:51.218Z,16.77
2018-12-16T14:33:18.802Z,14.95
2018-12-16T14:35:46.362Z,16.62
2018-12-16T14:38:14.076Z,15.25
2018-12-16T14:40:41.671Z,16.05
2018-12-16T14:43:09.268Z,16.45
2018-12-16T14:45:37.444Z,17.80
2018-12-16T14:48:05.026Z,16.43
2018-12-16T14:50:32.603Z,15.25
2018-12-16T14:53:00.299Z,15.00
2018-12-16T14:55:27.864Z,15.15
2018-12-16T14:57:55.450Z,14.37
2018-12-16T15:00:23.022Z,15.88
2018-12-16T15:02:50.615Z,14.98
2018-12-16T15:05:18.178Z,13.88
2018-12-16T15:07:45.770Z,14.33
2018-12-16T15:10:13.327Z,16.75
2018-12-16T15:12:41.193Z,15.55
2018-12-16T15:15:09.214Z,13.85
2018-12-16T15:17:42.696Z,13.48
2018-12-16T15:20:06.962Z,13.62
2018-12-16T15:22:35.761Z,13.35
2018-12-16T15:25:04.563Z,15.97
2018-12-16T15:27:32.155Z,14.98
2018-12-16T15:29:59.749Z,14.33
2018-12-16T15:32:27.306Z,13.60
2018-12-16T15:34:54.895Z,13.50
2018-12-16T15:37:22.472Z,13.03
2018-12-16T15:39:50.060Z,14.35
2018-12-16T15:42:17.628Z,13.40
2018-12-16T15:44:45.218Z,12.63
2018-12-16T15:47:12.799Z,14.00
2018-12-16T15:49:40.386Z,13.43
2018-12-16T15:52:07.949Z,14.20
2018-12-16T15:54:35.540Z,13.60
2018-12-16T15:57:03.144Z,14.47
2018-12-16T15:59:30.740Z,14.35
2018-12-16T16:01:58.351Z,13.32
2018-12-16T16:04:26.047Z,13.65
2018-12-16T16:06:53.648Z,14.90
2018-12-16T16:09:21.215Z,14.10
2018-12-16T16:11:48.810Z,13.88
2018-12-16T16:14:16.403Z,14.70
2018-12-16T16:16:44.712Z,12.88
2018-12-16T16:19:12.279Z,15.45
2018-12-16T16:21:39.875Z,14.50
2018-12-16T16:24:07.442Z,13.38
2018-12-16T16:26:35.078Z,13.40
2018-12-16T16:29:02.660Z,13.72
2018-12-16T16:31:30.258Z,12.82
2018-12-16T16:33:57.819Z,14.03
2018-12-16T16:36:25.406Z,12.68
2018-12-16T16:38:52.970Z,13.97
2018-12-16T16:41:20.571Z,14.35
2018-12-16T16:43:48.134Z,15.23
2018-12-16T16:46:20.764Z,12.00
2018-12-16T16:48:50.419Z,14.97
2018-12-16T16:51:18.016Z,15.05
2018-12-16T16:53:45.579Z,13.98
2018-12-16T16:56:13.169Z,13.03
2018-12-16T16:58:40.726Z,12.58
2018-12-16T17:01:08.314Z,11.63
2018-12-16T17:03:35.915Z,11.35
2018-12-16T17:06:03.503Z,11.68
2018-12-16T17:08:31.212Z,10.13
2018-12-16T17:10:59.200Z,11.75
2018-12-16T17:13:26.791Z,9.48
2018-12-16T17:15:54.342Z,9.43
2018-12-16T17:18:21.950Z,10.58
2018-12-16T17:20:49.516Z,11.93
2018-12-16T17:23:17.103Z,9.08
2018-12-16T17:25:48.240Z,9.15
2018-12-16T17:28:14.262Z,8.57
2018-12-16T17:30:41.835Z,7.45
2018-12-16T17:33:09.534Z,7.28
2018-12-16T17:35:37.091Z,9.80
2018-12-16T17:38:04.678Z,7.27
2018-12-16T17:40:32.703Z,7.40
2018-12-16T17:43:00.763Z,8.48
2018-12-16T17:45:28.543Z,7.70
2018-12-16T17:47:57.432Z,10.50
2018-12-16T17:50:25.075Z,10.53
2018-12-16T17:52:52.823Z,12.88
2018-12-16T17:55:20.473Z,11.55
2018-12-16T17:57:48.043Z,10.03
2018-12-16T18:00:15.667Z,11.65
2018-12-16T18:02:43.230Z,11.57
2018-12-16T18:05:10.983Z,10.63
2018-12-16T18:07:38.619Z,10.70
2018-12-16T18:10:06.453Z,11.55
2018-12-16T18:12:34.141Z,10.88
2018-12-16T18:15:01.742Z,11.63
2018-12-16T18:17:29.351Z,10.75
2018-12-16T18:19:57.043Z,11.00
2018-12-16T18:22:24.663Z,11.35
2018-12-16T18:24:52.255Z,12.33
2018-12-16T18:27:19.819Z,13.32
2018-12-16T18:29:47.419Z,15.78
2018-12-16T18:32:15.010Z,12.30
2018-12-16T18:34:42.820Z,12.15
2018-12-16T18:37:11.751Z,13.00
2018-12-16T18:39:39.621Z,12.50
2018-12-16T18:42:07.947Z,11.08
2018-12-16T18:44:35.970Z,11.27
2018-12-16T18:47:03.821Z,12.63
2018-12-16T18:49:33.018Z,12.88
2018-12-16T18:52:01.957Z,14.80
2018-12-16T18:54:29.627Z,17.30
2018-12-16T18:56:57.456Z,21.23
2018-12-16T18:59:25.054Z,22.07
2018-12-16T19:01:53.111Z,16.55
2018-12-16T19:04:22.481Z,15.93
2018-12-16T19:06:50.426Z,15.70
2018-12-16T19:09:18.103Z,16.07
2018-12-16T19:11:46.262Z,14.13
2018-12-16T19:14:13.872Z,16.15
2018-12-16T19:16:41.738Z,17.50
2018-12-16T19:19:10.323Z,19.97
2018-12-16T19:21:38.837Z,20.32
2018-12-16T19:24:06.598Z,19.42
2018-12-16T19:26:34.576Z,20.85
2018-12-16T19:29:02.194Z,21.05
2018-12-16T19:31:29.762Z,18.15
2018-12-16T19:33:57.378Z,14.93
2018-12-16T19:36:24.963Z,16.15
2018-12-16T19:38:52.559Z,14.20
2018-12-16T19:41:20.236Z,14.55
2018-12-16T19:43:47.994Z,16.23
2018-12-16T19:46:15.723Z,15.10
2018-12-16T19:48:43.589Z,14.20
2018-12-16T19:51:11.409Z,14.45
2018-12-16T19:53:40.141Z,14.77
2018-12-16T19:56:07.909Z,13.40
2018-12-16T19:58:35.750Z,13.60
2018-12-16T20:01:03.346Z,13.75
2018-12-16T20:03:31.962Z,15.15
2018-12-16T20:06:05.341Z,12.95
2018-12-16T20:08:33.073Z,14.83
2018-12-16T20:11:00.846Z,14.38
2018-12-16T20:13:28.792Z,14.58
2018-12-16T20:16:01.484Z,12.43
2018-12-16T20:18:26.055Z,12.93
2018-12-16T20:20:53.659Z,13.78
2018-12-16T20:23:21.227Z,12.93
2018-12-16T20:25:48.824Z,12.33
2018-12-16T20:28:16.392Z,12.47
2018-12-16T20:30:43.999Z,13.83
2018-12-16T20:33:11.566Z,13.08
2018-12-16T20:35:39.155Z,12.90
2018-12-16T20:38:06.954Z,14.95
2018-12-16T20:40:34.768Z,15.80
2018-12-16T20:43:02.338Z,17.50
2018-12-16T20:45:29.931Z,15.50
2018-12-16T20:47:57.492Z,15.60
2018-12-16T20:50:25.094Z,14.60
2018-12-16T20:52:54.650Z,14.65
2018-12-16T20:55:22.272Z,14.70
2018-12-16T20:57:49.873Z,16.00
2018-12-16T21:00:18.025Z,14.07
2018-12-16T21:02:45.632Z,14.90
2018-12-16T21:05:13.201Z,13.53
2018-12-16T21:07:40.796Z,14.90
2018-12-16T21:10:08.834Z,12.98
2018-12-16T21:12:42.134Z,12.20
2018-12-16T21:15:15.453Z,11.63
2018-12-16T21:17:48.738Z,11.18
2018-12-16T21:20:16.301Z,8.75
2018-12-16T21:22:44.622Z,11.05
2018-12-16T21:25:12.193Z,10.15
2018-12-16T21:27:39.775Z,8.85
2018-12-16T21:30:09.098Z,8.50
2018-12-16T21:32:36.655Z,9.18
2018-12-16T21:35:05.274Z,9.58
2018-12-16T21:37:33.284Z,7.70
2018-12-16T21:40:01.060Z,9.13
2018-12-16T21:42:28.614Z,8.33
2018-12-16T21:44:56.195Z,7.50
2018-12-16T21:47:23.770Z,10.55
2018-12-16T21:49:51.355Z,8.55
2018-12-16T21:52:19.018Z,7.70
2018-12-16T21:54:46.605Z,8.83
2018-12-16T21:57:14.168Z,8.65
2018-12-16T21:59:42.071Z,8.73
2018-12-16T22:02:09.650Z,10.03
2018-12-16T22:04:37.234Z,8.50
2018-12-16T22:07:04.831Z,9.90
2018-12-16T22:09:32.396Z,7.27
2018-12-16T22:11:59.995Z,7.85
2018-12-16T22:14:27.555Z,8.95
2018-12-16T22:16:55.143Z,9.20
2018-12-16T22:19:22.694Z,9.90
2018-12-16T22:21:50.868Z,9.33
2018-12-16T22:24:18.443Z,10.10
2018-12-16T22:26:46.026Z,9.65
2018-12-16T22:29:13.594Z,10.50
2018-12-16T22:31:41.183Z,10.37
2018-12-16T22:34:08.751Z,9.48
2018-12-16T22:36:36.342Z,8.95
2018-12-16T22:39:06.441Z,9.65
2018-12-16T22:41:34.173Z,9.10
2018-12-16T22:44:01.745Z,9.35
2018-12-16T22:46:29.653Z,10.98
2018-12-16T22:48:57.228Z,10.77
2018-12-16T22:51:24.806Z,10.65
2018-12-16T22:53:52.401Z,10.25
2018-12-16T22:56:20.058Z,7.70
2018-12-16T22:58:54.198Z,8.35
2018-12-16T23:01:17.251Z,9.20
2018-12-16T23:03:44.858Z,8.63
2018-12-16T23:06:12.431Z,10.43
2018-12-16T23:08:40.035Z,10.53
2018-12-16T23:11:07.651Z,9.63
2018-12-16T23:13:35.242Z,9.87
2018-12-16T23:16:02.810Z,9.00
2018-12-16T23:18:30.411Z,8.28
2018-12-16T23:20:57.990Z,9.60
2018-12-16T23:23:25.590Z,8.70
2018-12-16T23:25:53.154Z,9.63
2018-12-16T23:28:20.860Z,9.70
2018-12-16T23:30:48.446Z,9.93
2018-12-16T23:33:16.063Z,9.88
2018-12-16T23:35:44.350Z,11.25
2018-12-16T23:38:11.913Z,8.58
2018-12-16T23:40:39.507Z,9.53
2018-12-16T23:43:07.090Z,9.20
2018-12-16T23:45:34.674Z,8.43
2018-12-16T23:48:02.240Z,8.08
2018-12-16T23:50:29.838Z,8.48
2018-12-16T23:52:57.403Z,9.23
2018-12-16T23:55:24.991Z,8.95
2018-12-16T23:57:52.554Z,8.67
